createdAt,value
2023-04-15T00:00:34.459Z,1.10
2023-04-15T00:01:34.465Z,1.05
2023-04-15T00:02:34.596Z,0.94
2023-04-15T00:03:35.005Z,1.06
2023-04-15T00:04:34.469Z,0.66
2023-04-15T00:05:34.377Z,0.84
2023-04-15T00:06:34.337Z,1.06
2023-04-15T00:07:34.316Z,0.65
2023-04-15T00:08:34.329Z,0.83
2023-04-15T00:09:34.337Z,1.03
2023-04-15T00:10:34.336Z,0.94
2023-04-15T00:11:34.345Z,0.81
2023-04-15T00:12:34.352Z,0.85
2023-04-15T00:13:34.360Z,0.92
2023-04-15T00:14:34.387Z,1.00
2023-04-15T00:15:34.386Z,0.92
2023-04-15T00:16:34.409Z,0.82
2023-04-15T00:17:34.459Z,0.91
2023-04-15T00:18:34.425Z,0.70
2023-04-15T00:19:34.460Z,0.92
2023-04-15T00:20:34.469Z,0.73
2023-04-15T00:21:34.477Z,0.66
2023-04-15T00:22:34.487Z,0.93
2023-04-15T00:23:34.523Z,0.82
2023-04-15T00:24:34.523Z,0.73
2023-04-15T00:25:34.545Z,0.88
2023-04-15T00:26:34.541Z,0.66
2023-04-15T00:27:34.549Z,1.08
2023-04-15T00:28:34.572Z,0.61
2023-04-15T00:29:34.600Z,0.77
2023-04-15T00:30:34.612Z,0.58
2023-04-15T00:31:34.598Z,1.06
2023-04-15T00:32:34.661Z,0.78
2023-04-15T00:33:34.656Z,1.09
2023-04-15T00:34:34.656Z,0.88
2023-04-15T00:35:34.637Z,0.76
2023-04-15T00:36:34.657Z,0.82
2023-04-15T00:37:34.610Z,0.90
2023-04-15T00:38:34.584Z,0.62
2023-04-15T00:39:34.564Z,0.93
2023-04-15T00:40:34.538Z,0.80
2023-04-15T00:41:34.514Z,1.07
2023-04-15T00:42:34.531Z,0.79
2023-04-15T00:43:34.493Z,0.99
2023-04-15T00:44:34.458Z,0.86
2023-04-15T00:45:34.497Z,0.59
2023-04-15T00:46:34.413Z,0.89
2023-04-15T00:47:34.460Z,0.72
2023-04-15T00:48:34.376Z,0.67
2023-04-15T00:49:34.350Z,0.96
2023-04-15T00:50:34.360Z,0.70
2023-04-15T00:51:34.318Z,0.94
2023-04-15T00:52:34.298Z,0.83
2023-04-15T00:53:34.284Z,0.77
2023-04-15T00:54:34.239Z,1.12
2023-04-15T00:55:34.243Z,0.90
2023-04-15T00:56:34.238Z,0.68
2023-04-15T00:57:34.269Z,1.00
2023-04-15T00:58:34.299Z,0.67
2023-04-15T00:59:34.323Z,0.90
2023-04-15T01:00:34.327Z,0.91
2023-04-15T01:01:34.358Z,0.91
2023-04-15T01:02:34.502Z,0.79
2023-04-15T01:03:34.635Z,1.02
2023-04-15T01:04:34.422Z,1.10
2023-04-15T01:05:34.437Z,0.93
2023-04-15T01:06:34.444Z,0.85
2023-04-15T01:07:34.463Z,0.65
2023-04-15T01:08:34.499Z,0.75
2023-04-15T01:09:34.511Z,1.05
2023-04-15T01:10:34.540Z,0.73
2023-04-15T01:11:34.554Z,1.04
2023-04-15T01:12:34.571Z,0.86
2023-04-15T01:13:34.607Z,0.76
2023-04-15T01:14:34.614Z,0.98
2023-04-15T01:15:34.656Z,0.86
2023-04-15T01:16:34.694Z,1.27
2023-04-15T01:17:34.721Z,0.80
2023-04-15T01:18:34.699Z,0.71
2023-04-15T01:19:34.766Z,0.92
2023-04-15T01:20:34.752Z,0.92
2023-04-15T01:21:34.778Z,1.09
2023-04-15T01:22:34.797Z,0.91
2023-04-15T01:23:34.825Z,1.01
2023-04-15T01:24:34.857Z,0.86
2023-04-15T01:25:34.915Z,0.76
2023-04-15T01:26:34.890Z,1.00
2023-04-15T01:27:34.917Z,0.92
2023-04-15T01:28:34.937Z,1.08
2023-04-15T01:29:34.993Z,1.11
2023-04-15T01:30:35.014Z,0.79
2023-04-15T01:31:35.057Z,0.94
2023-04-15T01:32:35.081Z,0.82
2023-04-15T01:33:35.099Z,0.92
2023-04-15T01:34:35.792Z,0.88
2023-04-15T01:35:35.161Z,0.95
2023-04-15T01:36:35.176Z,1.00
2023-04-15T01:37:35.220Z,0.80
2023-04-15T01:38:35.240Z,0.69
2023-04-15T01:39:35.282Z,0.87
2023-04-15T01:40:35.353Z,0.88
2023-04-15T01:41:35.338Z,0.79
2023-04-15T01:42:35.362Z,0.94
2023-04-15T01:43:35.385Z,0.68
2023-04-15T01:44:35.409Z,0.85
2023-04-15T01:45:35.446Z,0.73
2023-04-15T01:46:35.534Z,0.88
2023-04-15T01:47:35.500Z,0.87
2023-04-15T01:48:35.522Z,0.99
2023-04-15T01:49:35.549Z,0.84
2023-04-15T01:50:35.563Z,1.08
2023-04-15T01:51:35.583Z,0.74
2023-04-15T01:52:35.624Z,0.87
2023-04-15T01:53:35.630Z,0.73
2023-04-15T01:54:35.676Z,1.05
2023-04-15T01:55:35.696Z,0.74
2023-04-15T01:56:35.723Z,1.00
2023-04-15T01:57:35.741Z,0.90
2023-04-15T01:58:35.760Z,0.96
2023-04-15T01:59:35.779Z,0.81
2023-04-15T02:00:35.908Z,0.99
2023-04-15T02:01:35.840Z,1.11
2023-04-15T02:02:35.949Z,1.10
2023-04-15T02:03:35.963Z,0.75
2023-04-15T02:04:35.931Z,0.78
2023-04-15T02:05:35.962Z,0.77
2023-04-15T02:06:35.993Z,0.95
2023-04-15T02:07:36.026Z,1.17
2023-04-15T02:08:36.041Z,0.68
2023-04-15T02:09:36.094Z,1.16
2023-04-15T02:10:36.102Z,0.75
2023-04-15T02:11:36.133Z,0.78
2023-04-15T02:12:36.164Z,0.94
2023-04-15T02:13:36.225Z,1.05
2023-04-15T02:14:36.233Z,0.87
2023-04-15T02:15:36.241Z,0.79
2023-04-15T02:16:36.326Z,0.96
2023-04-15T02:17:36.330Z,0.86
2023-04-15T02:18:36.332Z,0.73
2023-04-15T02:19:36.363Z,1.03
2023-04-15T02:20:36.389Z,1.06
2023-04-15T02:21:36.425Z,0.95
2023-04-15T02:22:36.442Z,0.71
2023-04-15T02:23:36.469Z,0.81
2023-04-15T02:24:36.503Z,1.16
2023-04-15T02:25:36.524Z,0.78
2023-04-15T02:26:36.560Z,1.06
2023-04-15T02:27:36.574Z,0.82
2023-04-15T02:28:36.610Z,0.80
2023-04-15T02:29:36.654Z,0.97
2023-04-15T02:30:36.659Z,0.90
2023-04-15T02:31:36.746Z,1.09
2023-04-15T02:32:36.720Z,0.81
2023-04-15T02:33:36.733Z,0.76
2023-04-15T02:34:36.765Z,0.88
2023-04-15T02:35:36.777Z,0.66
2023-04-15T02:36:36.832Z,0.81
2023-04-15T02:37:36.842Z,0.81
2023-04-15T02:38:36.894Z,1.08
2023-04-15T02:39:36.927Z,0.64
2023-04-15T02:40:36.953Z,0.83
2023-04-15T02:41:36.994Z,0.76
2023-04-15T02:42:37.028Z,1.19
2023-04-15T02:43:37.051Z,0.92
2023-04-15T02:44:37.086Z,0.84
2023-04-15T02:45:37.152Z,1.01
2023-04-15T02:46:37.144Z,0.66
2023-04-15T02:47:37.206Z,0.93
2023-04-15T02:48:37.227Z,0.86
2023-04-15T02:49:37.285Z,1.19
2023-04-15T02:50:37.320Z,1.19
2023-04-15T02:51:37.364Z,1.01
2023-04-15T02:52:37.385Z,1.13
2023-04-15T02:53:37.390Z,0.99
2023-04-15T02:54:37.432Z,0.95
2023-04-15T02:55:37.420Z,0.93
2023-04-15T02:56:37.466Z,0.99
2023-04-15T02:57:37.481Z,0.83
2023-04-15T02:58:37.590Z,1.03
2023-04-15T02:59:37.565Z,1.07
2023-04-15T03:00:37.564Z,1.31
2023-04-15T03:01:37.581Z,1.43
2023-04-15T03:02:37.715Z,0.91
2023-04-15T03:03:37.612Z,1.07
2023-04-15T03:04:37.620Z,1.03
2023-04-15T03:05:37.625Z,0.97
2023-04-15T03:06:37.629Z,1.02
2023-04-15T03:07:37.632Z,0.98
2023-04-15T03:08:37.646Z,1.03
2023-04-15T03:09:37.726Z,1.10
2023-04-15T03:10:37.857Z,1.06
2023-04-15T03:11:37.840Z,1.59
2023-04-15T03:12:37.845Z,0.96
2023-04-15T03:13:37.854Z,0.90
2023-04-15T03:14:37.857Z,1.04
2023-04-15T03:15:37.920Z,1.24
2023-04-15T03:16:37.898Z,1.48
2023-04-15T03:17:37.947Z,1.49
2023-04-15T03:18:37.917Z,1.14
2023-04-15T03:19:37.932Z,0.91
2023-04-15T03:20:37.996Z,1.23
2023-04-15T03:21:37.999Z,1.27
2023-04-15T03:22:38.059Z,1.31
2023-04-15T03:23:38.040Z,1.18
2023-04-15T03:24:38.072Z,0.96
2023-04-15T03:25:38.103Z,0.99
2023-04-15T03:26:38.130Z,1.08
2023-04-15T03:27:38.152Z,1.12
2023-04-15T03:28:38.178Z,1.22
2023-04-15T03:29:38.211Z,1.01
2023-04-15T03:30:38.241Z,0.82
2023-04-15T03:31:38.336Z,0.92
2023-04-15T03:32:38.428Z,1.02
2023-04-15T03:33:38.317Z,0.92
2023-04-15T03:34:38.364Z,0.93
2023-04-15T03:35:38.377Z,1.19
2023-04-15T03:36:38.428Z,1.15
2023-04-15T03:37:38.448Z,1.38
2023-04-15T03:38:38.481Z,1.21
2023-04-15T03:39:38.474Z,1.39
2023-04-15T03:40:38.477Z,1.20
2023-04-15T03:41:38.476Z,1.22
2023-04-15T03:42:38.469Z,1.30
2023-04-15T03:43:38.452Z,1.03
2023-04-15T03:44:38.456Z,1.65
2023-04-15T03:45:38.437Z,1.35
2023-04-15T03:46:38.472Z,1.33
2023-04-15T03:47:38.472Z,1.20
2023-04-15T03:48:38.403Z,1.47
2023-04-15T03:49:38.400Z,1.24
2023-04-15T03:50:38.402Z,1.34
2023-04-15T03:51:38.386Z,1.61
2023-04-15T03:52:38.440Z,1.25
2023-04-15T03:53:38.465Z,1.46
2023-04-15T03:54:38.555Z,1.34
2023-04-15T03:55:38.573Z,1.49
2023-04-15T03:56:38.597Z,1.33
2023-04-15T03:57:38.634Z,1.44
2023-04-15T03:58:38.688Z,1.02
2023-04-15T03:59:38.715Z,1.21
2023-04-15T04:00:38.770Z,1.55
2023-04-15T04:01:38.844Z,1.30
2023-04-15T04:02:39.117Z,1.32
2023-04-15T04:03:38.985Z,1.16
2023-04-15T04:04:38.944Z,1.08
2023-04-15T04:05:39.066Z,1.40
2023-04-15T04:06:39.012Z,1.18
2023-04-15T04:07:39.058Z,1.36
2023-04-15T04:08:39.106Z,1.07
2023-04-15T04:09:39.157Z,0.98
2023-04-15T04:10:39.202Z,1.32
2023-04-15T04:11:39.224Z,1.09
2023-04-15T04:12:39.258Z,1.02
2023-04-15T04:13:39.317Z,1.04
2023-04-15T04:14:39.355Z,1.41
2023-04-15T04:15:39.496Z,1.37
2023-04-15T04:16:39.466Z,1.23
2023-04-15T04:17:39.519Z,1.20
2023-04-15T04:18:39.549Z,1.09
2023-04-15T04:19:39.577Z,1.18
2023-04-15T04:20:39.637Z,1.49
2023-04-15T04:21:39.697Z,1.39
2023-04-15T04:22:39.737Z,1.38
2023-04-15T04:23:39.784Z,1.40
2023-04-15T04:24:39.838Z,1.57
2023-04-15T04:25:39.895Z,1.47
2023-04-15T04:26:39.932Z,1.68
2023-04-15T04:27:40.032Z,1.56
2023-04-15T04:28:40.045Z,0.89
2023-04-15T04:29:40.085Z,1.22
2023-04-15T04:30:40.123Z,1.50
2023-04-15T04:31:40.226Z,1.17
2023-04-15T04:32:40.269Z,1.59
2023-04-15T04:33:40.273Z,1.45
2023-04-15T04:34:40.347Z,1.40
2023-04-15T04:35:40.388Z,1.30
2023-04-15T04:36:40.444Z,1.14
2023-04-15T04:37:40.503Z,1.82
2023-04-15T04:38:40.548Z,1.14
2023-04-15T04:39:40.628Z,1.32
2023-04-15T04:40:40.684Z,1.32
2023-04-15T04:41:40.738Z,0.99
2023-04-15T04:42:40.798Z,1.06
2023-04-15T04:43:40.844Z,1.11
2023-04-15T04:44:40.890Z,1.51
2023-04-15T04:45:40.983Z,1.25
2023-04-15T04:46:40.997Z,1.25
2023-04-15T04:47:41.083Z,1.12
2023-04-15T04:48:41.108Z,1.02
2023-04-15T04:49:41.201Z,1.06
2023-04-15T04:50:41.237Z,0.98
2023-04-15T04:51:41.270Z,2.00
2023-04-15T04:52:41.327Z,1.30
2023-04-15T04:53:41.389Z,1.61
2023-04-15T04:54:41.460Z,1.73
2023-04-15T04:55:41.512Z,2.13
2023-04-15T04:56:41.574Z,1.98
2023-04-15T04:57:41.622Z,2.28
2023-04-15T04:58:41.677Z,2.34
2023-04-15T04:59:41.706Z,2.68
2023-04-15T05:00:41.732Z,3.05
2023-04-15T05:01:41.804Z,2.74
2023-04-15T05:02:41.842Z,2.58
2023-04-15T05:03:41.842Z,2.65
2023-04-15T05:04:41.707Z,2.78
2023-04-15T05:05:41.679Z,2.11
2023-04-15T05:06:41.683Z,2.42
2023-04-15T05:07:41.668Z,2.78
2023-04-15T05:08:41.650Z,2.57
2023-04-15T05:09:41.716Z,3.02
2023-04-15T05:10:41.798Z,3.11
2023-04-15T05:11:41.852Z,3.48
2023-04-15T05:12:41.835Z,3.28
2023-04-15T05:13:41.835Z,2.72
2023-04-15T05:14:41.834Z,2.86
2023-04-15T05:15:41.851Z,3.48
2023-04-15T05:16:41.820Z,4.19
2023-04-15T05:17:41.841Z,3.49
2023-04-15T05:18:41.799Z,4.17
2023-04-15T05:19:41.798Z,4.24
2023-04-15T05:20:41.820Z,4.02
2023-04-15T05:21:41.847Z,3.61
2023-04-15T05:22:41.905Z,3.99
2023-04-15T05:23:41.971Z,3.03
2023-04-15T05:24:42.040Z,3.84
2023-04-15T05:25:42.100Z,3.66
2023-04-15T05:26:42.970Z,3.95
2023-04-15T05:27:42.232Z,3.73
2023-04-15T05:28:42.274Z,3.21
2023-04-15T05:29:42.317Z,3.49
2023-04-15T05:30:42.396Z,3.48
2023-04-15T05:31:42.554Z,3.29
2023-04-15T05:32:42.540Z,3.98
2023-04-15T05:33:42.554Z,3.52
2023-04-15T05:34:42.592Z,3.85
2023-04-15T05:35:42.648Z,3.60
2023-04-15T05:36:42.710Z,3.92
2023-04-15T05:37:42.766Z,3.97
2023-04-15T05:38:42.826Z,2.51
2023-04-15T05:39:42.872Z,3.32
2023-04-15T05:40:42.930Z,3.16
2023-04-15T05:41:42.992Z,2.97
2023-04-15T05:42:43.052Z,3.37
2023-04-15T05:43:43.084Z,3.64
2023-04-15T05:44:43.152Z,3.33
2023-04-15T05:45:43.197Z,3.01
2023-04-15T05:46:43.329Z,3.12
2023-04-15T05:47:43.350Z,2.79
2023-04-15T05:48:43.381Z,2.82
2023-04-15T05:49:43.399Z,3.23
2023-04-15T05:50:43.426Z,2.62
2023-04-15T05:51:43.467Z,3.71
2023-04-15T05:52:43.508Z,3.31
2023-04-15T05:53:43.551Z,3.22
2023-04-15T05:54:43.613Z,3.48
2023-04-15T05:55:43.680Z,3.35
2023-04-15T05:56:43.725Z,3.47
2023-04-15T05:57:43.770Z,3.26
2023-04-15T05:58:43.812Z,3.78
2023-04-15T05:59:43.829Z,3.69
2023-04-15T06:00:43.866Z,2.97
2023-04-15T06:01:43.919Z,2.39
2023-04-15T06:02:44.094Z,3.32
2023-04-15T06:03:44.115Z,2.85
2023-04-15T06:04:44.065Z,3.14
2023-04-15T06:05:44.072Z,2.77
2023-04-15T06:06:44.128Z,3.03
2023-04-15T06:07:44.728Z,3.50
2023-04-15T06:08:44.203Z,3.14
2023-04-15T06:09:44.243Z,3.02
2023-04-15T06:10:44.292Z,3.01
2023-04-15T06:11:44.336Z,3.30
2023-04-15T06:12:44.361Z,3.20
2023-04-15T06:13:44.387Z,3.01
2023-04-15T06:14:44.445Z,2.86
2023-04-15T06:15:44.500Z,2.99
2023-04-15T06:16:44.567Z,2.86
2023-04-15T06:17:44.652Z,2.80
2023-04-15T06:18:44.664Z,3.15
2023-04-15T06:19:44.730Z,2.94
2023-04-15T06:20:44.768Z,2.53
2023-04-15T06:21:44.832Z,2.52
2023-04-15T06:22:44.886Z,2.77
2023-04-15T06:23:44.945Z,3.02
2023-04-15T06:24:45.024Z,2.64
2023-04-15T06:25:45.069Z,2.88
2023-04-15T06:26:45.137Z,2.71
2023-04-15T06:27:45.186Z,2.55
2023-04-15T06:28:45.250Z,2.52
2023-04-15T06:29:45.301Z,2.76
2023-04-15T06:30:45.405Z,2.70
2023-04-15T06:31:45.532Z,2.31
2023-04-15T06:32:45.509Z,2.89
2023-04-15T06:33:45.569Z,2.83
2023-04-15T06:34:45.626Z,2.78
2023-04-15T06:35:45.657Z,2.42
2023-04-15T06:36:45.698Z,2.64
2023-04-15T06:37:45.742Z,2.89
2023-04-15T06:38:45.758Z,2.63
2023-04-15T06:39:45.779Z,2.98
2023-04-15T06:40:45.841Z,2.97
2023-04-15T06:41:45.899Z,2.39
2023-04-15T06:42:45.942Z,2.77
2023-04-15T06:43:46.000Z,2.33
2023-04-15T06:44:46.057Z,2.32
2023-04-15T06:45:46.165Z,3.07
2023-04-15T06:46:46.174Z,2.60
2023-04-15T06:47:46.346Z,2.80
2023-04-15T06:48:46.296Z,2.65
2023-04-15T06:49:46.366Z,2.53
2023-04-15T06:50:46.384Z,2.49
2023-04-15T06:51:46.457Z,2.03
2023-04-15T06:52:46.502Z,2.37
2023-04-15T06:53:46.572Z,2.08
2023-04-15T06:54:46.633Z,2.04
2023-04-15T06:55:46.690Z,2.00
2023-04-15T06:56:46.725Z,1.97
2023-04-15T06:57:46.763Z,2.26
2023-04-15T06:58:46.823Z,2.08
2023-04-15T06:59:46.903Z,2.30
2023-04-15T07:00:46.940Z,1.63
2023-04-15T07:01:46.971Z,1.55
2023-04-15T07:02:47.048Z,2.41
2023-04-15T07:03:47.052Z,1.71
2023-04-15T07:04:47.043Z,1.55
2023-04-15T07:05:47.058Z,1.77
2023-04-15T07:06:47.076Z,1.44
2023-04-15T07:07:47.098Z,1.58
2023-04-15T07:08:47.139Z,1.62
2023-04-15T07:09:47.177Z,1.50
2023-04-15T07:10:47.194Z,1.73
2023-04-15T07:11:47.226Z,1.74
2023-04-15T07:12:47.241Z,1.52
2023-04-15T07:13:47.253Z,1.80
2023-04-15T07:14:47.289Z,1.47
2023-04-15T07:15:47.296Z,1.76
2023-04-15T07:16:47.420Z,1.32
2023-04-15T07:17:47.413Z,1.55
2023-04-15T07:18:47.441Z,1.39
2023-04-15T07:19:47.485Z,1.44
2023-04-15T07:20:47.534Z,1.91
2023-04-15T07:21:47.578Z,1.15
2023-04-15T07:22:47.610Z,1.08
2023-04-15T07:23:47.667Z,1.44
2023-04-15T07:24:47.719Z,1.32
2023-04-15T07:25:47.810Z,1.20
2023-04-15T07:26:47.843Z,1.09
2023-04-15T07:27:47.906Z,1.11
2023-04-15T07:28:47.919Z,1.22
2023-04-15T07:29:47.984Z,1.81
2023-04-15T07:30:48.121Z,1.44
2023-04-15T07:31:48.110Z,1.10
2023-04-15T07:32:48.239Z,1.24
2023-04-15T07:33:48.183Z,1.04
2023-04-15T07:34:48.227Z,1.10
2023-04-15T07:35:48.277Z,0.95
2023-04-15T07:36:48.342Z,1.38
2023-04-15T07:37:48.393Z,1.22
2023-04-15T07:38:48.429Z,1.07
2023-04-15T07:39:48.485Z,1.39
2023-04-15T07:40:48.535Z,1.14
2023-04-15T07:41:48.585Z,0.91
2023-04-15T07:42:48.627Z,1.20
2023-04-15T07:43:48.677Z,1.22
2023-04-15T07:44:48.713Z,1.03
2023-04-15T07:45:48.828Z,1.06
2023-04-15T07:46:48.825Z,1.14
2023-04-15T07:47:48.911Z,0.94
2023-04-15T07:48:48.913Z,0.99
2023-04-15T07:49:48.974Z,0.84
2023-04-15T07:50:49.035Z,1.29
2023-04-15T07:51:49.103Z,1.31
2023-04-15T07:52:49.110Z,0.90
2023-04-15T07:53:49.146Z,0.88
2023-04-15T07:54:49.200Z,1.10
2023-04-15T07:55:49.229Z,0.90
2023-04-15T07:56:49.293Z,1.16
2023-04-15T07:57:49.338Z,0.85
2023-04-15T07:58:49.363Z,1.03
2023-04-15T07:59:49.418Z,0.98
2023-04-15T08:00:49.461Z,0.93
2023-04-15T08:01:49.561Z,0.99
2023-04-15T08:02:49.632Z,0.96
2023-04-15T08:03:49.739Z,0.96
2023-04-15T08:04:49.715Z,1.05
2023-04-15T08:05:49.665Z,0.78
2023-04-15T08:06:49.703Z,1.06
2023-04-15T08:07:49.704Z,0.97
2023-04-15T08:08:49.710Z,1.08
2023-04-15T08:09:49.662Z,0.92
2023-04-15T08:10:51.355Z,0.90
2023-04-15T08:11:49.634Z,0.94
2023-04-15T08:12:49.659Z,0.91
2023-04-15T08:13:49.615Z,1.20
2023-04-15T08:14:49.611Z,1.14
2023-04-15T08:15:49.633Z,0.71
2023-04-15T08:16:49.577Z,1.08
2023-04-15T08:17:49.615Z,0.77
2023-04-15T08:18:49.574Z,0.93
2023-04-15T08:19:49.546Z,0.77
2023-04-15T08:20:49.546Z,1.07
2023-04-15T08:21:49.527Z,1.03
2023-04-15T08:22:49.561Z,0.71
2023-04-15T08:23:49.503Z,1.18
2023-04-15T08:24:49.483Z,1.08
2023-04-15T08:25:49.488Z,1.29
2023-04-15T08:26:49.484Z,1.22
2023-04-15T08:27:49.465Z,1.19
2023-04-15T08:28:49.430Z,1.48
2023-04-15T08:29:49.434Z,1.18
2023-04-15T08:30:49.410Z,1.30
2023-04-15T08:31:49.461Z,1.16
2023-04-15T08:32:49.460Z,1.22
2023-04-15T08:33:49.372Z,1.18
2023-04-15T08:34:49.341Z,1.39
2023-04-15T08:35:49.339Z,1.49
2023-04-15T08:36:49.314Z,1.14
2023-04-15T08:37:49.384Z,1.16
2023-04-15T08:38:49.393Z,1.41
2023-04-15T08:39:49.413Z,1.40
2023-04-15T08:40:49.441Z,1.71
2023-04-15T08:41:49.492Z,1.11
2023-04-15T08:42:49.528Z,1.34
2023-04-15T08:43:49.525Z,1.50
2023-04-15T08:44:49.562Z,1.40
2023-04-15T08:45:49.608Z,1.09
2023-04-15T08:46:49.789Z,1.18
2023-04-15T08:47:49.671Z,1.24
2023-04-15T08:48:49.613Z,1.06
2023-04-15T08:49:49.569Z,0.89
2023-04-15T08:50:49.544Z,1.12
2023-04-15T08:51:49.549Z,1.33
2023-04-15T08:52:49.526Z,0.88
2023-04-15T08:53:49.492Z,0.80
2023-04-15T08:54:49.469Z,1.12
2023-04-15T08:55:49.466Z,0.78
2023-04-15T08:56:49.483Z,0.82
2023-04-15T08:57:49.453Z,1.51
2023-04-15T08:58:49.428Z,1.14
2023-04-15T08:59:49.414Z,1.45
2023-04-15T09:00:49.459Z,1.09
2023-04-15T09:03:08.908Z,1.20
2023-04-15T09:04:08.770Z,0.75
2023-04-15T09:05:08.702Z,0.63
2023-04-15T09:06:08.679Z,1.04
2023-04-15T09:07:08.680Z,1.09
2023-04-15T09:08:08.670Z,1.01
2023-04-15T09:09:08.597Z,1.39
2023-04-15T09:10:08.574Z,0.82
2023-04-15T09:11:08.563Z,1.33
2023-04-15T09:12:08.550Z,0.75
2023-04-15T09:13:08.533Z,0.87
2023-04-15T09:14:08.498Z,1.33
2023-04-15T09:15:08.467Z,1.23
2023-04-15T09:16:08.594Z,1.12
2023-04-15T09:17:08.421Z,0.86
2023-04-15T09:18:08.401Z,0.77
2023-04-15T09:19:08.402Z,0.90
2023-04-15T09:20:08.352Z,1.00
2023-04-15T09:21:08.314Z,0.95
2023-04-15T09:22:08.313Z,0.70
2023-04-15T09:23:08.276Z,0.98
2023-04-15T09:24:08.253Z,0.89
2023-04-15T09:25:08.227Z,0.84
2023-04-15T09:26:08.199Z,0.92
2023-04-15T09:27:08.169Z,1.07
2023-04-15T09:28:08.160Z,0.81
2023-04-15T09:29:08.132Z,0.85
2023-04-15T09:30:08.072Z,1.26
2023-04-15T09:31:08.050Z,0.85
2023-04-15T09:32:08.001Z,0.98
2023-04-15T09:33:08.077Z,1.23
2023-04-15T09:34:07.942Z,0.88
2023-04-15T09:35:07.913Z,1.05
2023-04-15T09:36:07.892Z,0.95
2023-04-15T09:37:08.056Z,1.10
2023-04-15T09:38:07.863Z,0.71
2023-04-15T09:39:07.800Z,0.99
2023-04-15T09:40:07.772Z,0.88
2023-04-15T09:41:07.749Z,0.70
2023-04-15T09:42:07.726Z,0.87
2023-04-15T09:43:07.734Z,0.82
2023-04-15T09:44:07.664Z,1.06
2023-04-15T09:45:07.647Z,1.01
2023-04-15T09:46:07.710Z,0.92
2023-04-15T09:47:07.569Z,0.72
2023-04-15T09:48:07.608Z,1.06
2023-04-15T09:49:07.518Z,1.49
2023-04-15T09:50:07.482Z,0.96
2023-04-15T09:51:07.438Z,0.67
2023-04-15T09:52:07.398Z,1.40
2023-04-15T09:53:07.376Z,1.00
2023-04-15T09:54:07.361Z,0.96
2023-04-15T09:55:07.303Z,0.82
2023-04-15T09:56:07.261Z,0.98
2023-04-15T09:57:07.304Z,0.97
2023-04-15T09:58:07.213Z,1.18
2023-04-15T09:59:07.192Z,1.21
2023-04-15T10:00:07.151Z,0.83
2023-04-15T10:01:07.187Z,0.94
2023-04-15T10:02:07.439Z,1.00
2023-04-15T10:03:07.336Z,1.09
2023-04-15T10:04:07.559Z,0.81
2023-04-15T10:05:07.165Z,1.12
2023-04-15T10:06:07.124Z,1.33
2023-04-15T10:07:07.077Z,0.82
2023-04-15T10:08:07.048Z,0.83
2023-04-15T10:09:07.010Z,0.75
2023-04-15T10:10:07.048Z,1.00
2023-04-15T10:11:06.935Z,1.10
2023-04-15T10:12:06.922Z,1.02
2023-04-15T10:13:06.862Z,0.90
2023-04-15T10:14:06.817Z,1.05
2023-04-15T10:15:06.769Z,0.68
2023-04-15T10:16:06.753Z,1.00
2023-04-15T10:17:06.681Z,0.91
2023-04-15T10:18:06.689Z,0.78
2023-04-15T10:19:06.644Z,0.97
2023-04-15T10:20:06.607Z,0.90
2023-04-15T10:21:06.602Z,0.87
2023-04-15T10:22:06.585Z,0.96
2023-04-15T10:23:09.023Z,0.94
2023-04-15T10:24:06.553Z,1.00
2023-04-15T10:25:06.498Z,0.75
2023-04-15T10:26:06.473Z,0.66
2023-04-15T10:27:06.438Z,0.80
2023-04-15T10:28:06.388Z,0.78
2023-04-15T10:29:06.347Z,0.91
2023-04-15T10:30:06.349Z,0.97
2023-04-15T10:31:06.322Z,0.94
2023-04-15T10:32:06.255Z,0.75
2023-04-15T10:33:06.203Z,0.92
2023-04-15T10:34:06.178Z,0.75
2023-04-15T10:35:06.140Z,1.07
2023-04-15T10:36:06.100Z,1.16
2023-04-15T10:37:06.062Z,0.83
2023-04-15T10:38:06.038Z,0.90
2023-04-15T10:39:06.015Z,1.00
2023-04-15T10:40:05.977Z,0.73
2023-04-15T10:41:05.986Z,0.89
2023-04-15T10:42:05.913Z,0.80
2023-04-15T10:43:05.887Z,0.90
2023-04-15T10:44:05.975Z,0.76
2023-04-15T10:45:05.804Z,0.78
2023-04-15T10:46:05.797Z,0.90
2023-04-15T10:47:05.743Z,0.76
2023-04-15T10:48:05.780Z,1.11
2023-04-15T10:49:05.707Z,0.99
2023-04-15T10:50:05.621Z,1.20
2023-04-15T10:51:05.610Z,0.70
2023-04-15T10:52:05.561Z,0.76
2023-04-15T10:53:05.530Z,1.18
2023-04-15T10:54:05.682Z,1.01
2023-04-15T10:55:05.477Z,1.19
2023-04-15T10:56:05.399Z,1.02
2023-04-15T10:57:05.401Z,0.74
2023-04-15T10:58:05.336Z,0.93
2023-04-15T10:59:05.318Z,0.68
2023-04-15T11:00:05.266Z,0.72
2023-04-15T11:01:05.220Z,0.86
2023-04-15T11:02:05.252Z,1.09
2023-04-15T11:03:05.333Z,1.22
2023-04-15T11:04:05.247Z,0.94
2023-04-15T11:05:05.095Z,1.02
2023-04-15T11:06:05.061Z,0.82
2023-04-15T11:07:05.002Z,0.70
2023-04-15T11:08:04.969Z,0.86
2023-04-15T11:09:04.929Z,1.15
2023-04-15T11:10:04.941Z,0.73
2023-04-15T11:11:04.843Z,0.68
2023-04-15T11:12:04.828Z,1.13
2023-04-15T11:13:04.811Z,1.06
2023-04-15T11:14:04.905Z,1.09
2023-04-15T11:15:04.740Z,0.52
2023-04-15T11:16:04.727Z,0.81
2023-04-15T11:17:04.637Z,0.87
2023-04-15T11:18:04.668Z,0.97
2023-04-15T11:19:04.577Z,0.62
2023-04-15T11:20:04.552Z,0.70
2023-04-15T11:21:04.501Z,0.84
2023-04-15T11:22:04.463Z,1.11
2023-04-15T11:23:13.832Z,0.77
2023-04-15T11:24:05.747Z,0.99
2023-04-15T11:25:04.352Z,0.68
2023-04-15T11:26:04.293Z,0.74
2023-04-15T11:27:04.260Z,0.73
2023-04-15T11:28:04.220Z,0.87
2023-04-15T11:29:04.376Z,0.74
2023-04-15T11:30:04.170Z,0.91
2023-04-15T11:31:04.090Z,1.13
2023-04-15T11:32:04.107Z,0.58
2023-04-15T11:33:04.081Z,0.95
2023-04-15T11:34:04.080Z,1.00
2023-04-15T11:35:03.935Z,0.77
2023-04-15T11:36:03.889Z,0.76
2023-04-15T11:37:03.854Z,0.77
2023-04-15T11:38:03.827Z,0.97
2023-04-15T11:39:03.771Z,0.72
2023-04-15T11:40:03.757Z,0.78
2023-04-15T11:41:03.685Z,0.95
2023-04-15T11:42:03.639Z,0.83
2023-04-15T11:43:03.579Z,0.75
2023-04-15T11:44:03.829Z,0.83
2023-04-15T11:45:03.521Z,0.92
2023-04-15T11:46:03.492Z,0.93
2023-04-15T11:47:03.431Z,0.72
2023-04-15T11:48:03.392Z,0.97
2023-04-15T11:49:03.358Z,1.01
2023-04-15T11:50:03.324Z,0.80
2023-04-15T11:51:03.350Z,1.27
2023-04-15T11:52:03.293Z,0.86
2023-04-15T11:53:03.305Z,0.92
2023-04-15T11:54:03.610Z,0.75
2023-04-15T11:55:03.247Z,0.83
2023-04-15T11:56:03.231Z,1.10
2023-04-15T11:57:03.231Z,0.81
2023-04-15T11:58:03.196Z,0.82
2023-04-15T11:59:03.205Z,0.92
2023-04-15T12:00:03.179Z,0.77
2023-04-15T12:01:03.172Z,1.14
2023-04-15T12:02:03.219Z,0.70
2023-04-15T12:03:03.266Z,0.87
2023-04-15T12:04:03.456Z,0.60
2023-04-15T12:05:03.224Z,1.20
2023-04-15T12:06:03.075Z,0.81
2023-04-15T12:07:03.103Z,0.74
2023-04-15T12:08:03.039Z,0.79
2023-04-15T12:09:03.034Z,0.98
2023-04-15T12:10:03.005Z,0.67
2023-04-15T12:11:02.976Z,0.68
2023-04-15T12:12:02.947Z,1.02
2023-04-15T12:13:02.952Z,0.95
2023-04-15T12:14:03.200Z,0.83
2023-04-15T12:15:02.907Z,0.91
2023-04-15T12:16:02.918Z,0.90
2023-04-15T12:17:02.810Z,0.79
2023-04-15T12:18:02.836Z,0.69
2023-04-15T12:19:02.777Z,0.80
2023-04-15T12:20:02.730Z,0.91
2023-04-15T12:21:02.691Z,0.77
2023-04-15T12:22:02.645Z,0.74
2023-04-15T12:23:02.606Z,0.69
2023-04-15T12:24:02.773Z,0.98
2023-04-15T12:25:02.521Z,0.70
2023-04-15T12:26:02.453Z,0.98
2023-04-15T12:27:02.427Z,0.66
2023-04-15T12:28:02.388Z,0.88
2023-04-15T12:29:02.340Z,1.09
2023-04-15T12:30:02.328Z,0.66
2023-04-15T12:31:02.312Z,0.52
2023-04-15T12:32:02.262Z,0.72
2023-04-15T12:33:02.381Z,0.79
2023-04-15T12:34:02.430Z,0.89
2023-04-15T12:35:02.157Z,0.84
2023-04-15T12:36:02.100Z,0.89
2023-04-15T12:37:02.080Z,0.69
2023-04-15T12:38:02.013Z,0.93
2023-04-15T12:39:01.969Z,0.77
2023-04-15T12:40:01.950Z,0.91
2023-04-15T12:41:01.907Z,0.64
2023-04-15T12:42:01.873Z,0.84
2023-04-15T12:43:01.829Z,0.82
2023-04-15T12:44:02.021Z,0.63
2023-04-15T12:45:01.768Z,0.81
2023-04-15T12:46:01.749Z,0.95
2023-04-15T12:47:01.750Z,0.69
2023-04-15T12:48:01.644Z,1.17
2023-04-15T12:49:01.623Z,0.67
2023-04-15T12:50:01.610Z,0.64
2023-04-15T12:51:01.616Z,0.70
2023-04-15T12:52:01.531Z,0.63
2023-04-15T12:53:01.481Z,0.99
2023-04-15T12:54:01.543Z,0.71
2023-04-15T12:55:01.430Z,0.80
2023-04-15T12:56:01.393Z,0.75
2023-04-15T12:57:01.393Z,0.83
2023-04-15T12:58:01.316Z,0.90
2023-04-15T12:59:01.305Z,0.63
2023-04-15T13:00:01.268Z,0.95
2023-04-15T13:01:01.249Z,0.66
2023-04-15T13:02:01.305Z,0.89
2023-04-15T13:03:01.210Z,0.81
2023-04-15T13:04:01.157Z,0.47
2023-04-15T13:05:01.181Z,0.81
2023-04-15T13:06:01.016Z,0.87
2023-04-15T13:07:00.974Z,0.64
2023-04-15T13:08:00.960Z,0.83
2023-04-15T13:09:00.914Z,0.84
2023-04-15T13:10:00.877Z,0.84
2023-04-15T13:11:00.845Z,0.64
2023-04-15T13:12:00.843Z,0.88
2023-04-15T13:13:00.792Z,0.93
2023-04-15T13:14:00.782Z,0.73
2023-04-15T13:15:00.759Z,0.67
2023-04-15T13:16:00.762Z,0.82
2023-04-15T13:17:00.711Z,0.90
2023-04-15T13:18:00.744Z,0.70
2023-04-15T13:19:00.653Z,0.86
2023-04-15T13:20:00.636Z,0.79